Battlefield, MO

10:19 PM CDT on August 31, 2015 (GMT -0500)
Battlefield MO | | Change Station
CLOSE
Current Station
Personal Weather Station
Location: Battlefield, MO
Elevation: 1263 ft
Nearby Weather Stations

Elev 1263 ft 37.11 °N, 93.37 °W | Updated 11 hours ago

Clear
Clear
72 °F
Feels Like 72 °F
N
6
Wind Variable Wind from SSE
Gusts 12 mph

Today
High -- | Low -- °F
--% Chance of Precip.
Yesterday
High -- | Low -- °F
Precip. -- in
6:43 AM 7:43 PM
Waning Gibbous, 92% visible
Pressure 30.01 in
Visibility 10.0 miles
Clouds Clear
Dew Point 64 °F
Humidity 76%
Rainfall in
Snow Depth Not available.
UV 0 out of 12
Pollen 10.60 out of 12
Air Quality Not available.
Flu Activity Not available.
METAR KSGF 010252Z 16007KT 10SM CLR 24/20 A3005 RMK AO2 SLP163 T02390200 53008
Pressure 30.01 in
Visibility 10.0 miles
Clouds Clear
Dew Point 64 °F
Humidity 76%
Rainfall in
Snow Depth Not available.
UV 0 out of 12
Pollen 10.60 out of 12
Air Quality Not available.
Flu Activity Not available.
METAR KSGF 010252Z 16007KT 10SM CLR 24/20 A3005 RMK AO2 SLP163 T02390200 53008

10-Day Weather Forecast

×

Almanac

Astronomy

Aug. 31, 2015 Rise Set
Actual Time
Civil Twilight
Nautical Twilight
Astronomical Twilight
Moon
Length of Visible Light
Length of Day
Tomorrow will be .
, % of the Moon is Illuminated

Today's Extremes

State Highs State Lows

Community

WunderPhotos

Upload Photos

1,851,471 photos uploaded!

WunderBlogs® & News

Nearby

Air Quality

  Air Quality AQ Index Pollutant
Not available.

Snow Depth

Station Depth Elevation

Earthquake Activity

City Distance Mag. Time & Date
Minimum magnitude displayed is 2.5.

Coastal Water Temperatures

Place Temperature

Stations

Nearby Weather Stations

Station Location Temp. Windchill Dew Point Humidity Wind Precip. Elev Updated Type